sensor_id;sensor_type;location;lat;lon;timestamp;temperature;humidity
20459;DHT22;10388;52.314;7.938;2023-05-16T01:29:10;9.80;99.90
20459;DHT22;10388;52.314;7.938;2023-05-16T01:31:40;9.70;99.90
20459;DHT22;10388;52.314;7.938;2023-05-16T01:34:11;9.70;99.90
20459;DHT22;10388;52.314;7.938;2023-05-16T01:36:52;9.60;99.90
20459;DHT22;10388;52.314;7.938;2023-05-16T01:42:14;9.60;99.90
20459;DHT22;10388;52.314;7.938;2023-05-16T01:44:49;9.60;99.90
20459;DHT22;10388;52.314;7.938;2023-05-16T01:47:23;9.60;99.90
20459;DHT22;10388;52.314;7.938;2023-05-16T01:50:17;9.60;99.90
20459;DHT22;10388;52.314;7.938;2023-05-16T01:52:58;9.70;99.90
20459;DHT22;10388;52.314;7.938;2023-05-16T01:55:45;9.60;99.90
20459;DHT22;10388;52.314;7.938;2023-05-16T01:58:19;9.60;99.90
20459;DHT22;10388;52.314;7.938;2023-05-16T02:00:54;9.50;99.90
20459;DHT22;10388;52.314;7.938;2023-05-16T02:03:33;9.50;99.90
20459;DHT22;10388;52.314;7.938;2023-05-16T02:06:04;9.50;99.90
20459;DHT22;10388;52.314;7.938;2023-05-16T02:08:35;9.50;99.90
20459;DHT22;10388;52.314;7.938;2023-05-16T02:11:06;9.50;99.90
20459;DHT22;10388;52.314;7.938;2023-05-16T02:13:36;9.40;99.90
20459;DHT22;10388;52.314;7.938;2023-05-16T02:16:10;9.40;99.90
20459;DHT22;10388;52.314;7.938;2023-05-16T02:18:41;9.30;99.90
20459;DHT22;10388;52.314;7.938;2023-05-16T02:21:11;9.20;99.90
20459;DHT22;10388;52.314;7.938;2023-05-16T02:23:42;9.20;99.90
20459;DHT22;10388;52.314;7.938;2023-05-16T02:26:13;9.20;99.90
20459;DHT22;10388;52.314;7.938;2023-05-16T02:28:44;9.20;99.90
20459;DHT22;10388;52.314;7.938;2023-05-16T02:31:30;9.10;99.90
20459;DHT22;10388;52.314;7.938;2023-05-16T02:34:02;9.20;99.90
20459;DHT22;10388;52.314;7.938;2023-05-16T02:36:35;9.20;99.90
20459;DHT22;10388;52.314;7.938;2023-05-16T02:39:06;9.20;99.90
20459;DHT22;10388;52.314;7.938;2023-05-16T02:41:39;9.20;99.90
20459;DHT22;10388;52.314;7.938;2023-05-16T02:44:09;9.20;99.90
20459;DHT22;10388;52.314;7.938;2023-05-16T02:46:40;9.20;99.90
20459;DHT22;10388;52.314;7.938;2023-05-16T02:49:11;9.20;99.90
20459;DHT22;10388;52.314;7.938;2023-05-16T02:51:41;9.20;99.90
20459;DHT22;10388;52.314;7.938;2023-05-16T02:54:12;9.30;99.90
20459;DHT22;10388;52.314;7.938;2023-05-16T02:56:45;9.20;99.90
20459;DHT22;10388;52.314;7.938;2023-05-16T02:59:16;9.20;99.90
20459;DHT22;10388;52.314;7.938;2023-05-16T03:01:47;9.20;99.90
20459;DHT22;10388;52.314;7.938;2023-05-16T03:04:17;9.20;99.90
20459;DHT22;10388;52.314;7.938;2023-05-16T03:06:48;9.20;99.90
20459;DHT22;10388;52.314;7.938;2023-05-16T03:09:20;9.10;99.90
20459;DHT22;10388;52.314;7.938;2023-05-16T03:11:53;9.20;99.90
20459;DHT22;10388;52.314;7.938;2023-05-16T03:14:24;9.20;99.90
20459;DHT22;10388;52.314;7.938;2023-05-16T03:16:55;9.20;99.90
20459;DHT22;10388;52.314;7.938;2023-05-16T03:19:25;9.10;99.90
20459;DHT22;10388;52.314;7.938;2023-05-16T03:21:56;9.10;99.90
20459;DHT22;10388;52.314;7.938;2023-05-16T03:24:27;9.10;99.90
20459;DHT22;10388;52.314;7.938;2023-05-16T03:26:57;9.10;99.90
20459;DHT22;10388;52.314;7.938;2023-05-16T03:29:30;9.10;99.90
20459;DHT22;10388;52.314;7.938;2023-05-16T03:32:00;9.10;99.90
20459;DHT22;10388;52.314;7.938;2023-05-16T03:34:34;9.00;99.90
20459;DHT22;10388;52.314;7.938;2023-05-16T03:37:04;8.90;99.90
20459;DHT22;10388;52.314;7.938;2023-05-16T03:39:37;8.90;99.90
20459;DHT22;10388;52.314;7.938;2023-05-16T03:42:08;8.70;99.90
20459;DHT22;10388;52.314;7.938;2023-05-16T03:44:38;8.70;99.90
20459;DHT22;10388;52.314;7.938;2023-05-16T03:47:09;8.60;99.90
20459;DHT22;10388;52.314;7.938;2023-05-16T03:49:39;8.60;99.90
20459;DHT22;10388;52.314;7.938;2023-05-16T03:52:10;8.50;99.90
20459;DHT22;10388;52.314;7.938;2023-05-16T03:54:40;8.50;99.90
20459;DHT22;10388;52.314;7.938;2023-05-16T03:57:11;8.40;99.90
20459;DHT22;10388;52.314;7.938;2023-05-16T03:59:41;8.30;99.90
20459;DHT22;10388;52.314;7.938;2023-05-16T04:02:12;8.20;99.90
20459;DHT22;10388;52.314;7.938;2023-05-16T04:04:43;8.20;99.90
20459;DHT22;10388;52.314;7.938;2023-05-16T04:07:13;8.20;99.90
20459;DHT22;10388;52.314;7.938;2023-05-16T04:09:44;8.20;99.90
20459;DHT22;10388;52.314;7.938;2023-05-16T04:12:14;8.10;99.90
20459;DHT22;10388;52.314;7.938;2023-05-16T04:14:45;8.10;99.90
20459;DHT22;10388;52.314;7.938;2023-05-16T04:17:16;8.10;99.90
20459;DHT22;10388;52.314;7.938;2023-05-16T04:19:47;8.10;99.90
20459;DHT22;10388;52.314;7.938;2023-05-16T04:22:19;8.20;99.90
20459;DHT22;10388;52.314;7.938;2023-05-16T04:24:50;8.10;99.90
20459;DHT22;10388;52.314;7.938;2023-05-16T04:27:20;8.20;99.90
20459;DHT22;10388;52.314;7.938;2023-05-16T04:29:51;8.20;99.90
20459;DHT22;10388;52.314;7.938;2023-05-16T04:32:21;8.20;99.90
20459;DHT22;10388;52.314;7.938;2023-05-16T04:34:53;8.20;99.90
20459;DHT22;10388;52.314;7.938;2023-05-16T04:37:23;8.20;99.90
20459;DHT22;10388;52.314;7.938;2023-05-16T04:39:54;8.20;99.90
20459;DHT22;10388;52.314;7.938;2023-05-16T04:42:24;8.20;99.90
20459;DHT22;10388;52.314;7.938;2023-05-16T04:44:56;8.20;99.90
20459;DHT22;10388;52.314;7.938;2023-05-16T04:47:26;8.20;99.90
20459;DHT22;10388;52.314;7.938;2023-05-16T04:49:57;8.20;99.90
20459;DHT22;10388;52.314;7.938;2023-05-16T04:52:27;8.20;99.90
20459;DHT22;10388;52.314;7.938;2023-05-16T04:54:58;8.10;99.90
20459;DHT22;10388;52.314;7.938;2023-05-16T04:57:29;8.20;99.90
20459;DHT22;10388;52.314;7.938;2023-05-16T05:00:00;8.30;99.90
20459;DHT22;10388;52.314;7.938;2023-05-16T05:02:30;8.30;99.90
20459;DHT22;10388;52.314;7.938;2023-05-16T05:05:01;8.30;99.90
20459;DHT22;10388;52.314;7.938;2023-05-16T05:07:32;8.40;99.90
20459;DHT22;10388;52.314;7.938;2023-05-16T05:10:03;8.40;99.90
20459;DHT22;10388;52.314;7.938;2023-05-16T05:12:34;8.40;99.90
20459;DHT22;10388;52.314;7.938;2023-05-16T05:15:05;8.40;99.90
20459;DHT22;10388;52.314;7.938;2023-05-16T05:17:36;8.40;99.90
20459;DHT22;10388;52.314;7.938;2023-05-16T05:20:07;8.50;99.90
20459;DHT22;10388;52.314;7.938;2023-05-16T05:22:37;8.50;99.90
20459;DHT22;10388;52.314;7.938;2023-05-16T05:25:08;8.60;99.90
20459;DHT22;10388;52.314;7.938;2023-05-16T05:27:39;8.70;99.90
20459;DHT22;10388;52.314;7.938;2023-05-16T05:30:10;8.70;99.90
20459;DHT22;10388;52.314;7.938;2023-05-16T05:32:40;8.70;99.90
20459;DHT22;10388;52.314;7.938;2023-05-16T05:35:11;8.80;99.90
20459;DHT22;10388;52.314;7.938;2023-05-16T05:37:42;9.00;99.90
20459;DHT22;10388;52.314;7.938;2023-05-16T05:40:12;9.00;99.90
20459;DHT22;10388;52.314;7.938;2023-05-16T05:42:43;9.00;99.90
20459;DHT22;10388;52.314;7.938;2023-05-16T05:45:14;9.20;99.90
20459;DHT22;10388;52.314;7.938;2023-05-16T05:47:45;9.30;99.90
20459;DHT22;10388;52.314;7.938;2023-05-16T05:50:16;9.40;99.90
20459;DHT22;10388;52.314;7.938;2023-05-16T05:52:46;9.40;99.90
20459;DHT22;10388;52.314;7.938;2023-05-16T05:55:17;9.50;99.90
20459;DHT22;10388;52.314;7.938;2023-05-16T05:57:47;9.50;99.90
20459;DHT22;10388;52.314;7.938;2023-05-16T06:00:18;9.60;99.90
20459;DHT22;10388;52.314;7.938;2023-05-16T06:02:49;9.70;99.90
20459;DHT22;10388;52.314;7.938;2023-05-16T06:05:19;9.70;99.90
20459;DHT22;10388;52.314;7.938;2023-05-16T06:07:50;9.60;99.90
20459;DHT22;10388;52.314;7.938;2023-05-16T06:10:20;9.70;99.90
20459;DHT22;10388;52.314;7.938;2023-05-16T06:12:51;9.80;99.90
20459;DHT22;10388;52.314;7.938;2023-05-16T06:15:22;10.00;99.90
20459;DHT22;10388;52.314;7.938;2023-05-16T06:17:52;10.10;99.90
20459;DHT22;10388;52.314;7.938;2023-05-16T06:20:23;9.90;99.90
20459;DHT22;10388;52.314;7.938;2023-05-16T06:22:53;9.90;99.90
20459;DHT22;10388;52.314;7.938;2023-05-16T06:25:24;10.10;99.90
20459;DHT22;10388;52.314;7.938;2023-05-16T06:27:54;10.30;99.90
20459;DHT22;10388;52.314;7.938;2023-05-16T06:30:25;10.50;99.90
20459;DHT22;10388;52.314;7.938;2023-05-16T06:32:55;10.60;99.90
20459;DHT22;10388;52.314;7.938;2023-05-16T06:35:26;10.50;99.90
20459;DHT22;10388;52.314;7.938;2023-05-16T06:37:56;10.40;99.90
20459;DHT22;10388;52.314;7.938;2023-05-16T06:40:27;10.70;99.90
20459;DHT22;10388;52.314;7.938;2023-05-16T06:42:57;10.90;99.90
20459;DHT22;10388;52.314;7.938;2023-05-16T06:45:28;10.70;99.90
20459;DHT22;10388;52.314;7.938;2023-05-16T06:47:58;10.90;99.90
20459;DHT22;10388;52.314;7.938;2023-05-16T06:50:29;10.90;99.90
20459;DHT22;10388;52.314;7.938;2023-05-16T06:53:00;11.00;99.90
20459;DHT22;10388;52.314;7.938;2023-05-16T06:55:31;10.90;99.90
20459;DHT22;10388;52.314;7.938;2023-05-16T06:58:01;10.60;99.90
20459;DHT22;10388;52.314;7.938;2023-05-16T07:00:32;10.60;99.90
20459;DHT22;10388;52.314;7.938;2023-05-16T07:03:03;10.80;99.90
20459;DHT22;10388;52.314;7.938;2023-05-16T07:05:33;10.80;99.90
20459;DHT22;10388;52.314;7.938;2023-05-16T07:08:04;10.80;99.90
20459;DHT22;10388;52.314;7.938;2023-05-16T07:10:35;10.60;99.90
20459;DHT22;10388;52.314;7.938;2023-05-16T07:13:06;10.60;99.90
20459;DHT22;10388;52.314;7.938;2023-05-16T07:15:36;10.70;99.90
20459;DHT22;10388;52.314;7.938;2023-05-16T07:18:07;11.10;99.90
20459;DHT22;10388;52.314;7.938;2023-05-16T07:20:37;11.30;99.90
20459;DHT22;10388;52.314;7.938;2023-05-16T07:23:08;11.30;99.90
20459;DHT22;10388;52.314;7.938;2023-05-16T07:25:39;11.70;99.90
20459;DHT22;10388;52.314;7.938;2023-05-16T07:28:09;11.60;99.90
20459;DHT22;10388;52.314;7.938;2023-05-16T07:30:40;11.70;99.90
20459;DHT22;10388;52.314;7.938;2023-05-16T07:33:10;11.30;99.90
20459;DHT22;10388;52.314;7.938;2023-05-16T07:35:41;11.40;99.90
20459;DHT22;10388;52.314;7.938;2023-05-16T07:38:12;11.30;99.90
20459;DHT22;10388;52.314;7.938;2023-05-16T07:40:42;11.30;99.90
20459;DHT22;10388;52.314;7.938;2023-05-16T07:43:13;11.40;99.90
20459;DHT22;10388;52.314;7.938;2023-05-16T07:45:43;11.40;99.90
20459;DHT22;10388;52.314;7.938;2023-05-16T07:48:14;11.50;99.90
20459;DHT22;10388;52.314;7.938;2023-05-16T07:50:45;11.40;99.90
20459;DHT22;10388;52.314;7.938;2023-05-16T07:53:15;11.20;99.90
20459;DHT22;10388;52.314;7.938;2023-05-16T07:55:46;11.20;99.90
20459;DHT22;10388;52.314;7.938;2023-05-16T07:58:17;11.30;99.90
20459;DHT22;10388;52.314;7.938;2023-05-16T08:00:47;11.90;99.90
20459;DHT22;10388;52.314;7.938;2023-05-16T08:03:18;12.30;99.90
20459;DHT22;10388;52.314;7.938;2023-05-16T08:05:49;12.50;99.90
20459;DHT22;10388;52.314;7.938;2023-05-16T08:08:20;12.40;99.90
20459;DHT22;10388;52.314;7.938;2023-05-16T08:10:51;12.10;99.90
20459;DHT22;10388;52.314;7.938;2023-05-16T08:13:22;12.10;99.90
20459;DHT22;10388;52.314;7.938;2023-05-16T08:15:52;12.20;99.90
20459;DHT22;10388;52.314;7.938;2023-05-16T08:18:23;12.00;99.90
20459;DHT22;10388;52.314;7.938;2023-05-16T08:20:53;12.10;99.90
20459;DHT22;10388;52.314;7.938;2023-05-16T08:23:24;12.10;99.90
20459;DHT22;10388;52.314;7.938;2023-05-16T08:25:54;12.20;99.90
20459;DHT22;10388;52.314;7.938;2023-05-16T08:28:25;12.40;99.90
20459;DHT22;10388;52.314;7.938;2023-05-16T08:30:55;12.70;99.90
20459;DHT22;10388;52.314;7.938;2023-05-16T08:33:26;13.10;99.90
20459;DHT22;10388;52.314;7.938;2023-05-16T08:36:12;13.30;99.90
20459;DHT22;10388;52.314;7.938;2023-05-16T08:38:42;13.60;99.90
20459;DHT22;10388;52.314;7.938;2023-05-16T08:41:13;13.70;99.90
20459;DHT22;10388;52.314;7.938;2023-05-16T08:43:43;13.50;99.90
20459;DHT22;10388;52.314;7.938;2023-05-16T08:46:15;13.10;99.90
20459;DHT22;10388;52.314;7.938;2023-05-16T08:48:52;12.80;99.90
20459;DHT22;10388;52.314;7.938;2023-05-16T08:51:24;13.10;99.90
20459;DHT22;10388;52.314;7.938;2023-05-16T08:54:03;13.30;99.90
20459;DHT22;10388;52.314;7.938;2023-05-16T08:56:34;13.50;99.90
20459;DHT22;10388;52.314;7.938;2023-05-16T08:59:05;14.00;99.90
20459;DHT22;10388;52.314;7.938;2023-05-16T09:01:36;14.30;99.90
20459;DHT22;10388;52.314;7.938;2023-05-16T09:04:08;14.20;99.90
20459;DHT22;10388;52.314;7.938;2023-05-16T09:06:38;14.10;99.90
20459;DHT22;10388;52.314;7.938;2023-05-16T09:09:09;13.80;99.90
20459;DHT22;10388;52.314;7.938;2023-05-16T09:11:42;13.70;99.90
20459;DHT22;10388;52.314;7.938;2023-05-16T09:14:12;14.30;99.90
20459;DHT22;10388;52.314;7.938;2023-05-16T09:16:44;14.30;99.90
20459;DHT22;10388;52.314;7.938;2023-05-16T09:19:39;13.50;99.90
20459;DHT22;10388;52.314;7.938;2023-05-16T09:22:14;13.60;99.90
20459;DHT22;10388;52.314;7.938;2023-05-16T09:24:45;13.90;99.90
20459;DHT22;10388;52.314;7.938;2023-05-16T09:27:15;14.20;99.90
20459;DHT22;10388;52.314;7.938;2023-05-16T09:29:50;14.30;99.90
20459;DHT22;10388;52.314;7.938;2023-05-16T09:32:21;14.70;99.90
20459;DHT22;10388;52.314;7.938;2023-05-16T09:34:53;15.10;99.90
20459;DHT22;10388;52.314;7.938;2023-05-16T09:37:26;15.40;99.90
20459;DHT22;10388;52.314;7.938;2023-05-16T09:39:57;15.30;99.90
20459;DHT22;10388;52.314;7.938;2023-05-16T09:42:28;14.60;99.90
20459;DHT22;10388;52.314;7.938;2023-05-16T09:45:00;14.60;99.90
20459;DHT22;10388;52.314;7.938;2023-05-16T09:47:31;14.60;99.90
20459;DHT22;10388;52.314;7.938;2023-05-16T09:50:02;14.90;99.90
20459;DHT22;10388;52.314;7.938;2023-05-16T09:52:32;15.00;99.90
20459;DHT22;10388;52.314;7.938;2023-05-16T09:55:06;15.00;99.90
20459;DHT22;10388;52.314;7.938;2023-05-16T09:57:37;15.10;99.90
20459;DHT22;10388;52.314;7.938;2023-05-16T10:00:11;15.40;99.90
20459;DHT22;10388;52.314;7.938;2023-05-16T10:02:43;15.80;99.90
20459;DHT22;10388;52.314;7.938;2023-05-16T10:05:13;16.30;99.90
20459;DHT22;10388;52.314;7.938;2023-05-16T10:07:47;15.80;99.90
20459;DHT22;10388;52.314;7.938;2023-05-16T10:10:18;15.60;99.90
20459;DHT22;10388;52.314;7.938;2023-05-16T10:12:50;15.30;99.90
20459;DHT22;10388;52.314;7.938;2023-05-16T10:15:21;15.10;99.90
20459;DHT22;10388;52.314;7.938;2023-05-16T10:17:52;15.70;99.90
20459;DHT22;10388;52.314;7.938;2023-05-16T10:20:26;16.00;99.90
20459;DHT22;10388;52.314;7.938;2023-05-16T10:22:57;15.60;99.90
20459;DHT22;10388;52.314;7.938;2023-05-16T10:25:37;15.40;99.90
20459;DHT22;10388;52.314;7.938;2023-05-16T10:28:10;15.10;99.90
20459;DHT22;10388;52.314;7.938;2023-05-16T10:30:43;15.20;99.90
20459;DHT22;10388;52.314;7.938;2023-05-16T10:33:16;15.50;99.90
20459;DHT22;10388;52.314;7.938;2023-05-16T10:35:47;15.70;99.90
20459;DHT22;10388;52.314;7.938;2023-05-16T10:38:18;15.80;99.90
20459;DHT22;10388;52.314;7.938;2023-05-16T10:40:50;16.00;99.90
20459;DHT22;10388;52.314;7.938;2023-05-16T10:43:26;16.00;99.90
20459;DHT22;10388;52.314;7.938;2023-05-16T10:46:01;15.90;99.90
20459;DHT22;10388;52.314;7.938;2023-05-16T10:48:39;15.70;99.90
20459;DHT22;10388;52.314;7.938;2023-05-16T10:53:53;14.90;99.90
20459;DHT22;10388;52.314;7.938;2023-05-16T10:56:25;15.00;99.90
20459;DHT22;10388;52.314;7.938;2023-05-16T10:58:56;15.60;99.90
20459;DHT22;10388;52.314;7.938;2023-05-16T11:01:33;16.10;99.90
20459;DHT22;10388;52.314;7.938;2023-05-16T11:04:07;16.20;99.90
20459;DHT22;10388;52.314;7.938;2023-05-16T11:14:40;16.50;99.90
20459;DHT22;10388;52.314;7.938;2023-05-16T11:17:22;16.40;99.90
20459;DHT22;10388;52.314;7.938;2023-05-16T11:19:59;17.10;99.90
20459;DHT22;10388;52.314;7.938;2023-05-16T11:22:35;17.10;99.90
20459;DHT22;10388;52.314;7.938;2023-05-16T11:25:10;17.00;99.90
20459;DHT22;10388;52.314;7.938;2023-05-16T11:27:44;16.70;99.90
20459;DHT22;10388;52.314;7.938;2023-05-16T11:30:16;16.20;99.90
20459;DHT22;10388;52.314;7.938;2023-05-16T11:32:48;15.70;99.90
20459;DHT22;10388;52.314;7.938;2023-05-16T11:35:19;15.70;99.90
20459;DHT22;10388;52.314;7.938;2023-05-16T11:37:50;15.60;99.90
20459;DHT22;10388;52.314;7.938;2023-05-16T11:40:21;15.50;99.90
20459;DHT22;10388;52.314;7.938;2023-05-16T11:42:51;15.80;99.90
20459;DHT22;10388;52.314;7.938;2023-05-16T11:45:22;15.80;99.90
20459;DHT22;10388;52.314;7.938;2023-05-16T11:48:01;16.50;99.90
20459;DHT22;10388;52.314;7.938;2023-05-16T11:50:33;17.00;99.90
20459;DHT22;10388;52.314;7.938;2023-05-16T11:53:05;17.30;99.90
20459;DHT22;10388;52.314;7.938;2023-05-16T11:55:35;17.40;99.90
20459;DHT22;10388;52.314;7.938;2023-05-16T11:58:06;16.20;99.90
20459;DHT22;10388;52.314;7.938;2023-05-16T12:00:47;16.60;99.90
20459;DHT22;10388;52.314;7.938;2023-05-16T12:03:18;17.10;99.90
20459;DHT22;10388;52.314;7.938;2023-05-16T12:05:53;16.70;99.90
20459;DHT22;10388;52.314;7.938;2023-05-16T12:08:24;17.00;99.90
20459;DHT22;10388;52.314;7.938;2023-05-16T12:10:55;16.70;99.90
20459;DHT22;10388;52.314;7.938;2023-05-16T12:13:26;17.30;99.90
20459;DHT22;10388;52.314;7.938;2023-05-16T12:15:56;18.30;99.90
20459;DHT22;10388;52.314;7.938;2023-05-16T12:18:28;18.50;99.90
20459;DHT22;10388;52.314;7.938;2023-05-16T12:20:58;18.20;99.90
20459;DHT22;10388;52.314;7.938;2023-05-16T12:23:29;18.00;99.90
20459;DHT22;10388;52.314;7.938;2023-05-16T12:26:02;17.80;99.90
20459;DHT22;10388;52.314;7.938;2023-05-16T12:28:36;17.90;99.90
20459;DHT22;10388;52.314;7.938;2023-05-16T12:31:18;17.70;99.90
20459;DHT22;10388;52.314;7.938;2023-05-16T12:33:55;17.20;99.90
20459;DHT22;10388;52.314;7.938;2023-05-16T12:36:30;17.10;99.90
20459;DHT22;10388;52.314;7.938;2023-05-16T12:39:02;16.50;99.90
20459;DHT22;10388;52.314;7.938;2023-05-16T12:41:39;16.30;99.90
20459;DHT22;10388;52.314;7.938;2023-05-16T12:44:13;16.10;99.90
20459;DHT22;10388;52.314;7.938;2023-05-16T12:46:49;15.70;99.90
20459;DHT22;10388;52.314;7.938;2023-05-16T12:49:21;15.20;99.90
20459;DHT22;10388;52.314;7.938;2023-05-16T12:51:53;14.90;99.90
20459;DHT22;10388;52.314;7.938;2023-05-16T12:54:24;14.90;99.90
20459;DHT22;10388;52.314;7.938;2023-05-16T12:56:55;15.40;99.90
20459;DHT22;10388;52.314;7.938;2023-05-16T12:59:25;16.20;99.90
20459;DHT22;10388;52.314;7.938;2023-05-16T13:01:58;16.10;99.90
20459;DHT22;10388;52.314;7.938;2023-05-16T13:04:29;16.20;99.90
20459;DHT22;10388;52.314;7.938;2023-05-16T13:06:59;16.30;99.90
20459;DHT22;10388;52.314;7.938;2023-05-16T13:09:30;15.90;99.90
20459;DHT22;10388;52.314;7.938;2023-05-16T13:12:00;16.10;99.90
20459;DHT22;10388;52.314;7.938;2023-05-16T13:14:31;16.20;99.90
20459;DHT22;10388;52.314;7.938;2023-05-16T13:17:02;16.30;99.90
20459;DHT22;10388;52.314;7.938;2023-05-16T13:19:33;16.60;99.90
20459;DHT22;10388;52.314;7.938;2023-05-16T13:22:04;16.70;99.90
20459;DHT22;10388;52.314;7.938;2023-05-16T13:24:35;17.30;99.90
20459;DHT22;10388;52.314;7.938;2023-05-16T13:27:05;17.10;99.90
20459;DHT22;10388;52.314;7.938;2023-05-16T13:29:36;16.70;99.90
20459;DHT22;10388;52.314;7.938;2023-05-16T13:32:06;16.30;99.90
20459;DHT22;10388;52.314;7.938;2023-05-16T13:34:37;15.80;99.90
20459;DHT22;10388;52.314;7.938;2023-05-16T13:37:07;15.60;99.90
20459;DHT22;10388;52.314;7.938;2023-05-16T13:39:38;15.20;99.90
20459;DHT22;10388;52.314;7.938;2023-05-16T13:42:08;15.20;99.90
20459;DHT22;10388;52.314;7.938;2023-05-16T13:44:39;15.80;99.90
20459;DHT22;10388;52.314;7.938;2023-05-16T13:47:10;15.70;99.90
20459;DHT22;10388;52.314;7.938;2023-05-16T13:49:40;16.20;99.90
20459;DHT22;10388;52.314;7.938;2023-05-16T13:52:11;16.40;99.90
20459;DHT22;10388;52.314;7.938;2023-05-16T13:54:42;16.40;99.90
20459;DHT22;10388;52.314;7.938;2023-05-16T13:57:12;16.60;99.90
20459;DHT22;10388;52.314;7.938;2023-05-16T13:59:43;16.40;99.90
20459;DHT22;10388;52.314;7.938;2023-05-16T14:02:13;16.90;99.90
20459;DHT22;10388;52.314;7.938;2023-05-16T14:04:44;16.10;99.90
20459;DHT22;10388;52.314;7.938;2023-05-16T14:07:15;15.70;99.90
20459;DHT22;10388;52.314;7.938;2023-05-16T14:09:45;15.60;99.90
20459;DHT22;10388;52.314;7.938;2023-05-16T14:12:16;15.60;99.90
20459;DHT22;10388;52.314;7.938;2023-05-16T14:14:46;15.70;99.90
20459;DHT22;10388;52.314;7.938;2023-05-16T14:17:17;15.40;99.90
20459;DHT22;10388;52.314;7.938;2023-05-16T14:19:47;15.50;99.90
20459;DHT22;10388;52.314;7.938;2023-05-16T14:22:18;15.50;99.90
20459;DHT22;10388;52.314;7.938;2023-05-16T14:24:48;15.50;99.90
20459;DHT22;10388;52.314;7.938;2023-05-16T14:27:19;15.80;99.90
20459;DHT22;10388;52.314;7.938;2023-05-16T14:29:50;15.70;99.90
20459;DHT22;10388;52.314;7.938;2023-05-16T14:32:21;15.60;99.90
20459;DHT22;10388;52.314;7.938;2023-05-16T14:34:52;15.70;99.90
20459;DHT22;10388;52.314;7.938;2023-05-16T14:37:23;15.60;99.90
20459;DHT22;10388;52.314;7.938;2023-05-16T14:39:53;15.80;99.90
20459;DHT22;10388;52.314;7.938;2023-05-16T14:42:24;15.70;99.90
20459;DHT22;10388;52.314;7.938;2023-05-16T14:44:55;15.60;99.90
20459;DHT22;10388;52.314;7.938;2023-05-16T14:47:25;16.30;99.90
20459;DHT22;10388;52.314;7.938;2023-05-16T14:49:57;16.60;99.90
20459;DHT22;10388;52.314;7.938;2023-05-16T14:52:28;16.40;99.90
20459;DHT22;10388;52.314;7.938;2023-05-16T14:54:59;16.30;99.90
20459;DHT22;10388;52.314;7.938;2023-05-16T14:57:30;16.10;99.90
20459;DHT22;10388;52.314;7.938;2023-05-16T15:00:01;16.00;99.90
20459;DHT22;10388;52.314;7.938;2023-05-16T15:02:31;15.80;99.90
20459;DHT22;10388;52.314;7.938;2023-05-16T15:05:02;15.80;99.90
20459;DHT22;10388;52.314;7.938;2023-05-16T15:07:33;15.90;99.90
20459;DHT22;10388;52.314;7.938;2023-05-16T15:10:04;15.90;99.90
20459;DHT22;10388;52.314;7.938;2023-05-16T15:12:36;15.70;99.90
20459;DHT22;10388;52.314;7.938;2023-05-16T15:15:07;16.00;99.90
20459;DHT22;10388;52.314;7.938;2023-05-16T15:17:40;15.60;99.90
20459;DHT22;10388;52.314;7.938;2023-05-16T15:20:11;15.50;99.90
20459;DHT22;10388;52.314;7.938;2023-05-16T15:22:42;15.40;99.90
20459;DHT22;10388;52.314;7.938;2023-05-16T15:25:13;15.30;99.90
20459;DHT22;10388;52.314;7.938;2023-05-16T15:27:43;15.40;99.90
20459;DHT22;10388;52.314;7.938;2023-05-16T15:30:14;15.60;99.90
20459;DHT22;10388;52.314;7.938;2023-05-16T15:32:45;15.60;99.90
20459;DHT22;10388;52.314;7.938;2023-05-16T15:35:15;15.80;99.90
20459;DHT22;10388;52.314;7.938;2023-05-16T15:37:46;15.70;99.90
20459;DHT22;10388;52.314;7.938;2023-05-16T15:40:17;15.30;99.90
20459;DHT22;10388;52.314;7.938;2023-05-16T15:42:47;15.40;99.90
20459;DHT22;10388;52.314;7.938;2023-05-16T15:45:18;15.20;99.90
20459;DHT22;10388;52.314;7.938;2023-05-16T15:47:48;15.10;99.90
20459;DHT22;10388;52.314;7.938;2023-05-16T15:50:19;15.10;99.90
20459;DHT22;10388;52.314;7.938;2023-05-16T15:52:50;15.10;99.90
20459;DHT22;10388;52.314;7.938;2023-05-16T15:55:20;15.00;99.90
20459;DHT22;10388;52.314;7.938;2023-05-16T15:57:51;14.80;99.90
20459;DHT22;10388;52.314;7.938;2023-05-16T16:00:26;14.70;99.90
20459;DHT22;10388;52.314;7.938;2023-05-16T16:02:56;15.00;99.90
20459;DHT22;10388;52.314;7.938;2023-05-16T16:05:27;15.50;99.90
20459;DHT22;10388;52.314;7.938;2023-05-16T16:07:57;15.60;99.90
20459;DHT22;10388;52.314;7.938;2023-05-16T16:10:29;15.20;99.90
20459;DHT22;10388;52.314;7.938;2023-05-16T16:13:01;14.90;99.90
20459;DHT22;10388;52.314;7.938;2023-05-16T16:15:32;14.70;99.90
20459;DHT22;10388;52.314;7.938;2023-05-16T16:18:03;14.40;99.90
20459;DHT22;10388;52.314;7.938;2023-05-16T16:20:33;14.40;99.90
20459;DHT22;10388;52.314;7.938;2023-05-16T16:23:04;14.40;99.90
20459;DHT22;10388;52.314;7.938;2023-05-16T16:25:34;14.40;99.90
20459;DHT22;10388;52.314;7.938;2023-05-16T16:28:06;14.10;99.90
20459;DHT22;10388;52.314;7.938;2023-05-16T16:30:36;14.00;99.90
20459;DHT22;10388;52.314;7.938;2023-05-16T16:33:07;14.10;99.90
20459;DHT22;10388;52.314;7.938;2023-05-16T16:35:37;14.00;99.90
20459;DHT22;10388;52.314;7.938;2023-05-16T16:38:08;14.00;99.90
20459;DHT22;10388;52.314;7.938;2023-05-16T16:40:38;13.80;99.90
20459;DHT22;10388;52.314;7.938;2023-05-16T16:43:09;13.90;99.90
20459;DHT22;10388;52.314;7.938;2023-05-16T16:45:40;13.70;99.90
20459;DHT22;10388;52.314;7.938;2023-05-16T16:48:10;13.70;99.90
20459;DHT22;10388;52.314;7.938;2023-05-16T16:50:41;13.50;99.90
20459;DHT22;10388;52.314;7.938;2023-05-16T16:53:12;13.50;99.90
20459;DHT22;10388;52.314;7.938;2023-05-16T16:55:43;13.50;99.90
20459;DHT22;10388;52.314;7.938;2023-05-16T16:58:14;13.30;99.90
20459;DHT22;10388;52.314;7.938;2023-05-16T17:00:45;13.30;99.90
20459;DHT22;10388;52.314;7.938;2023-05-16T17:03:15;13.30;99.90
20459;DHT22;10388;52.314;7.938;2023-05-16T17:05:48;13.00;99.90
20459;DHT22;10388;52.314;7.938;2023-05-16T17:08:19;13.00;99.90
20459;DHT22;10388;52.314;7.938;2023-05-16T17:10:50;13.10;99.90
20459;DHT22;10388;52.314;7.938;2023-05-16T17:13:20;13.00;99.90
20459;DHT22;10388;52.314;7.938;2023-05-16T17:15:51;13.00;99.90
20459;DHT22;10388;52.314;7.938;2023-05-16T17:18:24;12.80;99.90
20459;DHT22;10388;52.314;7.938;2023-05-16T17:20:54;12.90;99.90
20459;DHT22;10388;52.314;7.938;2023-05-16T17:23:26;12.70;99.90
20459;DHT22;10388;52.314;7.938;2023-05-16T17:25:58;12.80;99.90
20459;DHT22;10388;52.314;7.938;2023-05-16T17:28:28;12.60;99.90
20459;DHT22;10388;52.314;7.938;2023-05-16T17:31:01;12.60;99.90
20459;DHT22;10388;52.314;7.938;2023-05-16T17:33:32;12.60;99.90
20459;DHT22;10388;52.314;7.938;2023-05-16T17:36:03;12.60;99.90
20459;DHT22;10388;52.314;7.938;2023-05-16T17:38:36;12.60;99.90
20459;DHT22;10388;52.314;7.938;2023-05-16T17:41:07;12.50;99.90
20459;DHT22;10388;52.314;7.938;2023-05-16T17:43:37;12.40;99.90